Time;durP1;ratioP1;P1;durP2;ratioP2;P2;SDS_P1;SDS_P2;PMS_P1;PMS_P2;Temp;Humidity;BMP_temperature;BMP_pressure;BME280_temperature;BME280_humidity;BME280_pressure;Samples;Min_cycle;Max_cycle;Signal;HPM_P1;HPM_P2
2023/06/28 00:00:18;;;;;;;7.72;2.35;;;16.10;99.90;;;;;;5134534;28;20088;-56
2023/06/28 00:02:45;;;;;;;6.15;2.30;;;16.10;99.90;;;;;;5115980;28;20039;-56
2023/06/28 00:05:12;;;;;;;3.40;1.75;;;16.10;99.90;;;;;;5134225;28;20465;-56
2023/06/28 00:07:38;;;;;;;6.60;2.10;;;16.10;99.90;;;;;;5134384;28;20384;-56
2023/06/28 00:10:05;;;;;;;5.00;2.08;;;16.10;99.90;;;;;;5134283;28;20043;-56
2023/06/28 00:12:31;;;;;;;;;;;16.00;99.90;;;;;;5134793;28;20049;-56
2023/06/28 00:14:57;;;;;;;3.40;1.30;;;16.10;99.90;;;;;;5134144;28;20014;-56
2023/06/28 00:17:27;;;;;;;3.90;1.60;;;16.10;99.90;;;;;;5115897;27;20043;-57
2023/06/28 00:20:06;;;;;;;4.57;1.33;;;16.10;99.90;;;;;;5137431;27;20054;-56
2023/06/28 00:22:32;;;;;;;4.20;1.50;;;16.00;99.90;;;;;;5138265;27;20039;-56
2023/06/28 00:25:03;;;;;;;6.03;1.80;;;16.00;99.90;;;;;;5120189;27;20108;-56
2023/06/28 00:27:28;;;;;;;3.00;1.50;;;16.00;99.90;;;;;;5138115;27;20455;-56
2023/06/28 00:29:55;;;;;;;5.50;1.48;;;15.90;99.90;;;;;;5138034;27;20081;-56
2023/06/28 00:32:21;;;;;;;4.70;1.52;;;15.90;99.90;;;;;;5137784;27;20483;-56
2023/06/28 00:34:47;;;;;;;3.25;1.58;;;15.90;99.90;;;;;;5137781;27;20043;-56
2023/06/28 00:37:13;;;;;;;6.25;1.67;;;15.90;99.90;;;;;;5137902;27;20087;-56
2023/06/28 00:39:39;;;;;;;4.00;1.42;;;15.80;99.90;;;;;;5138358;27;20099;-56
2023/06/28 00:42:05;;;;;;;4.13;1.50;;;15.80;99.90;;;;;;5137740;27;20043;-56
2023/06/28 00:44:30;;;;;;;6.07;1.60;;;15.80;99.90;;;;;;5137598;27;20539;-56
2023/06/28 00:46:58;;;;;;;5.68;1.40;;;15.80;99.90;;;;;;5137672;27;20187;-56
2023/06/28 00:49:28;;;;;;;5.03;1.88;;;15.80;99.90;;;;;;5119724;27;20043;-56
2023/06/28 00:51:55;;;;;;;5.07;1.55;;;15.80;99.90;;;;;;5119505;27;20609;-56
2023/06/28 00:54:21;;;;;;;;;;;15.80;99.90;;;;;;5138021;27;20047;-56
2023/06/28 00:56:48;;;;;;;5.50;1.80;;;15.80;99.90;;;;;;5137381;27;19925;-56
2023/06/28 00:59:15;;;;;;;5.20;1.80;;;15.80;99.90;;;;;;5137398;27;20087;-56
2023/06/28 01:01:42;;;;;;;6.45;1.92;;;15.80;99.90;;;;;;5137330;27;20043;-56
2023/06/28 01:04:07;;;;;;;3.67;1.60;;;15.70;99.90;;;;;;5137435;27;20087;-56
2023/06/28 01:06:38;;;;;;;5.40;1.70;;;15.70;99.90;;;;;;5102227;27;20139;-56
2023/06/28 01:09:04;;;;;;;4.00;1.60;;;15.70;99.90;;;;;;5119553;27;20043;-56
2023/06/28 01:11:31;;;;;;;6.00;1.85;;;15.70;99.90;;;;;;5137256;27;20050;-56
2023/06/28 01:13:58;;;;;;;4.65;1.60;;;15.70;99.90;;;;;;5137155;27;20510;-56
2023/06/28 01:16:24;;;;;;;3.30;1.50;;;15.70;99.90;;;;;;5136936;27;20578;-57
2023/06/28 01:18:50;;;;;;;7.35;2.10;;;15.70;99.90;;;;;;5119008;27;20043;-56
2023/06/28 01:21:17;;;;;;;7.40;1.65;;;15.70;99.90;;;;;;5137056;27;20047;-55
2023/06/28 01:23:44;;;;;;;4.78;1.50;;;15.70;99.90;;;;;;5136975;27;20138;-54
2023/06/28 01:26:11;;;;;;;4.40;1.55;;;15.70;99.90;;;;;;5136899;27;20403;-55
2023/06/28 01:28:37;;;;;;;5.32;2.15;;;15.70;99.90;;;;;;5136892;27;20058;-56
2023/06/28 01:31:04;;;;;;;7.00;1.73;;;15.70;99.90;;;;;;5118213;27;20043;-56
2023/06/28 01:33:30;;;;;;;4.95;1.75;;;15.70;99.90;;;;;;5118745;27;20043;-56
2023/06/28 01:35:59;;;;;;;5.22;1.90;;;15.70;99.90;;;;;;5136913;27;20051;-55
2023/06/28 01:38:28;;;;;;;5.53;1.92;;;15.70;99.90;;;;;;5136852;27;20043;-56
2023/06/28 01:40:55;;;;;;;3.97;1.70;;;15.70;99.90;;;;;;5136572;27;20039;-56
2023/06/28 01:43:21;;;;;;;;;;;15.70;99.90;;;;;;5118678;27;20050;-56
2023/06/28 01:45:49;;;;;;;5.10;1.75;;;15.70;99.90;;;;;;5136453;27;19919;-55
2023/06/28 01:48:16;;;;;;;4.00;1.45;;;15.60;99.90;;;;;;5136558;27;20051;-56
2023/06/28 01:50:42;;;;;;;4.90;1.70;;;15.70;99.90;;;;;;5136507;27;20043;-56
2023/06/28 01:53:08;;;;;;;6.40;1.77;;;15.70;99.90;;;;;;5118507;27;20403;-56
2023/06/28 01:55:33;;;;;;;5.03;1.63;;;15.70;99.90;;;;;;5117970;27;20042;-56
2023/06/28 01:57:59;;;;;;;3.47;1.43;;;15.70;99.90;;;;;;5136333;27;20130;-56
2023/06/28 02:00:25;;;;;;;3.58;1.25;;;15.70;99.90;;;;;;5136524;27;20415;-56
2023/06/28 02:02:52;;;;;;;4.87;1.60;;;15.70;99.90;;;;;;5136365;27;20043;-55
2023/06/28 02:05:19;;;;;;;4.07;1.40;;;15.60;99.90;;;;;;5136250;27;20268;-56
2023/06/28 02:07:44;;;;;;;3.92;1.48;;;15.70;99.90;;;;;;5118126;27;20062;-56
2023/06/28 02:10:10;;;;;;;4.22;1.30;;;15.70;99.90;;;;;;5136049;27;20039;-56
2023/06/28 02:12:36;;;;;;;5.53;1.50;;;15.70;99.90;;;;;;5117850;27;20053;-56
2023/06/28 02:15:02;;;;;;;5.00;1.52;;;15.70;99.90;;;;;;5135978;27;20107;-56
2023/06/28 02:17:31;;;;;;;5.22;1.38;;;15.70;99.90;;;;;;5135793;27;20476;-56
2023/06/28 02:19:57;;;;;;;3.25;1.40;;;15.70;99.90;;;;;;5135813;27;20478;-56
2023/06/28 02:22:23;;;;;;;8.23;1.48;;;15.70;99.90;;;;;;5135756;27;20039;-56
2023/06/28 02:24:48;;;;;;;3.10;1.30;;;15.70;99.90;;;;;;5135640;27;20391;-56
2023/06/28 02:27:14;;;;;;;4.68;1.33;;;15.70;99.90;;;;;;5117310;27;20047;-56
2023/06/28 02:29:40;;;;;;;3.55;1.23;;;15.70;99.90;;;;;;5135821;27;20047;-56
2023/06/28 02:32:06;;;;;;;2.80;1.08;;;15.70;99.90;;;;;;5135509;27;20047;-56
2023/06/28 02:34:32;;;;;;;4.38;1.45;;;15.70;99.90;;;;;;5135713;27;20086;-56
2023/06/28 02:36:58;;;;;;;3.80;1.23;;;15.70;99.90;;;;;;5135431;27;20100;-56
2023/06/28 02:39:24;;;;;;;3.10;1.00;;;15.70;99.90;;;;;;5135458;27;20154;-56
2023/06/28 02:41:50;;;;;;;3.92;1.27;;;15.70;99.90;;;;;;5134572;27;20035;-56
2023/06/28 02:44:16;;;;;;;5.32;1.25;;;15.70;99.90;;;;;;5135797;27;20043;-56
2023/06/28 02:46:41;;;;;;;2.50;1.05;;;15.70;99.90;;;;;;5135377;27;20382;-56
2023/06/28 02:49:07;;;;;;;3.35;1.20;;;15.70;99.90;;;;;;5117006;27;20051;-56
2023/06/28 02:51:33;;;;;;;4.13;1.10;;;15.80;99.90;;;;;;5135363;27;20051;-56
2023/06/28 02:53:59;;;;;;;3.08;1.10;;;15.70;99.90;;;;;;5135323;27;20441;-56
2023/06/28 02:56:25;;;;;;;4.15;1.33;;;15.70;99.90;;;;;;5134939;27;20046;-56
2023/06/28 02:58:51;;;;;;;5.00;1.30;;;15.80;99.90;;;;;;5117108;27;20039;-56
2023/06/28 03:01:20;;;;;;;3.22;0.90;;;15.80;99.90;;;;;;5135417;27;20122;-56
2023/06/28 03:03:46;;;;;;;2.45;0.95;;;15.70;99.90;;;;;;5116967;27;20103;-56
2023/06/28 03:06:12;;;;;;;4.47;0.95;;;15.70;99.90;;;;;;5116815;27;20043;-56
2023/06/28 03:08:38;;;;;;;4.03;1.13;;;15.70;99.90;;;;;;5135017;27;20054;-56
2023/06/28 03:11:03;;;;;;;3.20;1.13;;;15.70;99.90;;;;;;5134911;27;20047;-56
2023/06/28 03:13:29;;;;;;;3.15;0.98;;;15.70;99.90;;;;;;5134999;27;20395;-56
2023/06/28 03:15:55;;;;;;;3.97;1.20;;;15.70;99.90;;;;;;5099700;27;20407;-56
2023/06/28 03:18:21;;;;;;;4.40;1.00;;;15.70;99.90;;;;;;5134676;27;20291;-56
2023/06/28 03:20:46;;;;;;;6.07;1.60;;;15.70;99.90;;;;;;5134799;27;20051;-56
2023/06/28 03:23:12;;;;;;;4.25;1.08;;;15.60;99.90;;;;;;5116325;27;20035;-56
2023/06/28 03:25:37;;;;;;;2.97;1.10;;;15.70;99.90;;;;;;5134704;27;20065;-56
2023/06/28 03:28:03;;;;;;;3.37;1.00;;;15.70;99.90;;;;;;5134791;27;20269;-56
2023/06/28 03:30:29;;;;;;;3.50;1.10;;;15.70;99.90;;;;;;5099949;27;20043;-56
2023/06/28 03:32:54;;;;;;;6.90;2.00;;;15.80;99.90;;;;;;5134736;27;20498;-56
2023/06/28 03:35:20;;;;;;;4.37;1.50;;;15.80;99.90;;;;;;5116559;27;20284;-56
2023/06/28 03:37:54;;;;;;;4.15;1.60;;;15.80;99.90;;;;;;5134501;27;20078;-56
2023/06/28 03:40:20;;;;;;;3.55;1.25;;;15.80;99.90;;;;;;5134483;27;20043;-56
2023/06/28 03:42:45;;;;;;;3.60;1.35;;;15.80;99.90;;;;;;5134631;28;20039;-56
2023/06/28 03:45:11;;;;;;;6.47;1.45;;;15.80;99.90;;;;;;5099520;28;20403;-56
2023/06/28 03:47:37;;;;;;;4.15;1.45;;;15.80;99.90;;;;;;5134427;28;20507;-56
2023/06/28 03:50:03;;;;;;;5.18;1.38;;;15.80;99.90;;;;;;5134402;28;20407;-55
2023/06/28 03:52:28;;;;;;;4.07;1.30;;;15.80;99.90;;;;;;5135268;27;20054;-55
2023/06/28 03:54:54;;;;;;;4.07;1.20;;;15.80;99.90;;;;;;5120325;27;20058;-55
2023/06/28 03:57:23;;;;;;;5.17;1.40;;;15.80;99.90;;;;;;5138689;27;20130;-56
2023/06/28 03:59:48;;;;;;;4.25;1.50;;;15.80;99.90;;;;;;5138709;27;20768;-56
2023/06/28 04:02:14;;;;;;;2.77;1.23;;;15.80;99.90;;;;;;5120368;27;20074;-56
2023/06/28 04:04:40;;;;;;;3.85;1.50;;;15.90;99.90;;;;;;5138507;27;20284;-56
2023/06/28 04:07:06;;;;;;;5.95;1.20;;;15.90;99.90;;;;;;5138366;27;20046;-55
2023/06/28 04:09:32;;;;;;;4.53;1.20;;;15.90;99.90;;;;;;5138260;27;20039;-55
2023/06/28 04:11:58;;;;;;;2.67;0.90;;;15.90;99.90;;;;;;5138495;27;20445;-55
2023/06/28 04:14:24;;;;;;;3.40;1.23;;;15.90;99.90;;;;;;5120366;27;20046;-54
2023/06/28 04:16:53;;;;;;;3.33;1.27;;;15.90;99.90;;;;;;5120232;27;20092;-55
2023/06/28 04:19:19;;;;;;;2.70;1.00;;;15.90;99.90;;;;;;5138300;27;20043;-55
2023/06/28 04:21:45;;;;;;;3.42;0.90;;;15.90;99.90;;;;;;5138359;27;20096;-54
2023/06/28 04:24:11;;;;;;;4.45;1.15;;;15.90;99.90;;;;;;5137969;27;20448;-55
2023/06/28 04:26:37;;;;;;;3.40;0.98;;;15.90;99.90;;;;;;5103353;27;20068;-54
2023/06/28 04:29:03;;;;;;;1.98;0.80;;;15.90;99.90;;;;;;5138201;27;20051;-54
2023/06/28 04:31:29;;;;;;;3.05;1.10;;;15.90;99.90;;;;;;5138152;27;20100;-54
2023/06/28 04:33:55;;;;;;;3.17;1.05;;;15.90;99.90;;;;;;5137884;27;20493;-54
2023/06/28 04:36:22;;;;;;;3.97;1.30;;;15.90;99.90;;;;;;5137797;27;20474;-54
2023/06/28 04:38:52;;;;;;;4.57;0.90;;;15.90;99.90;;;;;;5138099;27;20079;-54
2023/06/28 04:41:27;;;;;;;4.10;0.80;;;15.90;99.90;;;;;;5137949;27;20047;-55
2023/06/28 04:43:58;;;;;;;3.33;0.80;;;15.90;99.90;;;;;;5138147;27;20061;-55
2023/06/28 04:46:28;;;;;;;2.17;0.70;;;15.90;99.90;;;;;;5120167;27;20095;-54
2023/06/28 04:48:55;;;;;;;2.05;0.60;;;15.90;99.90;;;;;;5137494;27;20061;-53
2023/06/28 04:51:21;;;;;;;3.13;0.80;;;15.90;99.90;;;;;;5137719;27;20047;-55
2023/06/28 04:53:48;;;;;;;3.28;0.93;;;15.90;99.90;;;;;;5137712;27;20054;-54
2023/06/28 04:56:17;;;;;;;3.72;0.90;;;15.90;99.90;;;;;;5137521;27;20405;-53
2023/06/28 04:58:43;;;;;;;2.53;0.75;;;15.90;99.90;;;;;;5137540;27;20043;-53
2023/06/28 05:01:09;;;;;;;4.78;0.90;;;15.90;99.90;;;;;;5119359;27;20043;-55
2023/06/28 05:03:35;;;;;;;1.70;0.70;;;15.90;99.90;;;;;;5137062;27;20516;-54
2023/06/28 05:06:07;;;;;;;3.00;0.77;;;15.90;99.90;;;;;;5136691;27;20526;-54
2023/06/28 05:08:34;;;;;;;2.70;0.82;;;15.90;99.90;;;;;;5137438;27;20050;-54
2023/06/28 05:11:00;;;;;;;;;;;15.80;99.90;;;;;;5137768;27;20504;-54
2023/06/28 05:13:25;;;;;;;2.25;0.60;;;15.80;99.90;;;;;;5102199;27;19919;-55
2023/06/28 05:15:51;;;;;;;1.67;0.65;;;15.80;99.90;;;;;;5136991;27;20051;-55
2023/06/28 05:18:18;;;;;;;3.92;0.77;;;15.80;99.90;;;;;;5136901;27;20392;-52
2023/06/28 05:20:44;;;;;;;3.58;0.80;;;15.80;99.90;;;;;;5136997;27;20530;-55
2023/06/28 05:23:14;;;;;;;1.98;0.70;;;15.90;99.90;;;;;;5137218;27;20047;-54
2023/06/28 05:25:41;;;;;;;4.10;0.80;;;15.90;99.90;;;;;;5118754;27;20544;-54
2023/06/28 05:28:08;;;;;;;3.50;0.93;;;15.90;99.90;;;;;;5136882;27;20039;-54
2023/06/28 05:30:34;;;;;;;2.60;1.00;;;15.90;99.90;;;;;;5136796;27;20091;-53
2023/06/28 05:33:02;;;;;;;2.30;0.80;;;15.90;99.90;;;;;;5119324;27;20086;-53
2023/06/28 05:35:32;;;;;;;2.53;0.73;;;15.90;99.90;;;;;;5136937;27;20051;-53
2023/06/28 05:38:02;;;;;;;1.63;0.70;;;15.90;99.90;;;;;;5136713;27;20082;-54
2023/06/28 05:40:28;;;;;;;3.90;1.00;;;15.90;99.90;;;;;;5136763;27;20091;-54
2023/06/28 05:42:54;;;;;;;2.33;0.90;;;16.00;99.90;;;;;;5136512;27;20087;-54
2023/06/28 05:45:23;;;;;;;3.05;0.82;;;16.00;99.90;;;;;;5136659;27;20057;-54
2023/06/28 05:47:50;;;;;;;2.65;0.90;;;16.10;99.90;;;;;;5118159;27;20553;-54
2023/06/28 05:50:16;;;;;;;;;;;16.00;99.90;;;;;;5137095;27;20039;-54
2023/06/28 05:52:45;;;;;;;3.70;1.00;;;16.10;99.90;;;;;;5136738;27;19926;-54
2023/06/28 05:55:11;;;;;;;1.63;0.80;;;16.00;99.90;;;;;;5136372;27;20047;-54
2023/06/28 05:57:37;;;;;;;2.15;0.85;;;16.10;99.90;;;;;;5136209;27;20050;-54
2023/06/28 06:00:04;;;;;;;4.13;1.00;;;16.10;99.90;;;;;;5136681;27;20047;-53
2023/06/28 06:02:30;;;;;;;2.72;0.80;;;16.10;99.90;;;;;;5136381;27;20038;-55
2023/06/28 06:04:57;;;;;;;1.70;0.80;;;16.10;99.90;;;;;;5136503;27;20533;-54
2023/06/28 06:07:23;;;;;;;1.95;0.90;;;16.10;99.90;;;;;;5136293;27;20674;-54
2023/06/28 06:09:48;;;;;;;3.30;0.83;;;16.10;99.90;;;;;;5136087;27;20043;-54
2023/06/28 06:12:14;;;;;;;2.17;1.00;;;16.10;99.90;;;;;;5135962;27;20355;-54
2023/06/28 06:14:40;;;;;;;3.35;1.05;;;16.20;99.90;;;;;;5135818;27;20135;-55
2023/06/28 06:17:05;;;;;;;3.13;1.00;;;16.20;99.90;;;;;;5134836;27;20069;-55
2023/06/28 06:19:31;;;;;;;3.33;1.08;;;16.20;99.90;;;;;;5118060;27;20357;-55
2023/06/28 06:21:57;;;;;;;2.92;1.00;;;16.20;99.90;;;;;;5135855;27;20459;-54
2023/06/28 06:24:22;;;;;;;2.27;0.80;;;16.30;99.90;;;;;;5117781;27;20039;-54
2023/06/28 06:26:48;;;;;;;2.88;1.10;;;16.30;99.90;;;;;;5135692;27;20333;-54
2023/06/28 06:29:14;;;;;;;2.13;1.00;;;16.30;99.90;;;;;;5135502;27;20055;-55
2023/06/28 06:31:39;;;;;;;2.80;1.00;;;16.30;99.90;;;;;;5135798;27;20281;-49
2023/06/28 06:34:05;;;;;;;3.85;1.35;;;16.30;99.90;;;;;;5135667;27;20126;-53
2023/06/28 06:36:31;;;;;;;3.33;1.43;;;16.30;99.90;;;;;;5135594;27;20388;-52
2023/06/28 06:38:57;;;;;;;4.05;1.00;;;16.30;99.90;;;;;;5135634;27;20475;-54
2023/06/28 06:41:23;;;;;;;2.90;1.30;;;16.30;99.90;;;;;;5135616;27;20083;-53
2023/06/28 06:43:49;;;;;;;3.08;1.30;;;16.30;99.90;;;;;;5117202;27;20518;-53
2023/06/28 06:46:18;;;;;;;3.58;1.10;;;16.30;99.90;;;;;;5135344;27;20031;-54
2023/06/28 06:48:44;;;;;;;3.83;1.00;;;16.30;99.90;;;;;;5135760;27;20062;-53
2023/06/28 06:51:10;;;;;;;5.45;1.50;;;16.30;99.90;;;;;;5135318;27;20043;-54
2023/06/28 06:53:36;;;;;;;2.60;1.00;;;16.40;99.90;;;;;;5135208;27;20043;-53
2023/06/28 06:56:01;;;;;;;4.55;1.40;;;16.40;99.90;;;;;;5135177;27;20039;-54
2023/06/28 06:58:27;;;;;;;4.93;1.70;;;16.40;99.90;;;;;;5135189;27;20039;-52
2023/06/28 07:00:53;;;;;;;3.90;1.33;;;16.40;99.90;;;;;;5116951;27;20342;-54
2023/06/28 07:03:19;;;;;;;5.03;1.80;;;16.40;99.90;;;;;;5135356;27;20047;-54
2023/06/28 07:05:44;;;;;;;4.28;1.27;;;16.40;99.90;;;;;;5134925;27;20038;-54
2023/06/28 07:08:10;;;;;;;3.67;1.40;;;16.50;99.90;;;;;;5135079;27;20078;-54
2023/06/28 07:10:36;;;;;;;5.47;1.48;;;16.50;99.90;;;;;;5116594;27;20051;-52
2023/06/28 07:13:02;;;;;;;4.68;1.67;;;16.50;99.90;;;;;;5134680;27;20039;-52
2023/06/28 07:15:28;;;;;;;2.92;1.33;;;16.50;99.90;;;;;;5134997;27;20039;-54
2023/06/28 07:17:54;;;;;;;5.50;1.80;;;16.50;99.90;;;;;;5134744;27;20100;-55
2023/06/28 07:20:20;;;;;;;5.65;2.10;;;16.50;99.90;;;;;;5116655;27;20475;-49
2023/06/28 07:22:46;;;;;;;;;;;16.50;99.90;;;;;;5135087;27;20039;-53
2023/06/28 07:25:11;;;;;;;4.65;1.90;;;16.50;99.90;;;;;;5134780;27;19933;-53
2023/06/28 07:27:37;;;;;;;7.72;2.42;;;16.50;99.90;;;;;;5134153;27;20040;-52
2023/06/28 07:30:03;;;;;;;5.07;2.17;;;16.50;99.90;;;;;;5134528;27;20046;-53
2023/06/28 07:32:29;;;;;;;5.28;2.17;;;16.50;99.90;;;;;;5134703;27;20043;-53
2023/06/28 07:34:55;;;;;;;6.88;2.47;;;16.50;99.90;;;;;;5134954;27;20061;-54
2023/06/28 07:37:21;;;;;;;4.93;2.03;;;16.50;99.90;;;;;;5134589;27;20130;-50
2023/06/28 07:39:47;;;;;;;;;;;16.50;99.90;;;;;;5134978;27;20117;-55
2023/06/28 07:42:13;;;;;;;4.85;2.22;;;16.50;99.90;;;;;;5134284;28;19926;-54
2023/06/28 07:44:39;;;;;;;;;;;16.50;99.90;;;;;;5134995;28;20047;-54
2023/06/28 07:47:05;;;;;;;4.97;2.20;;;16.50;99.90;;;;;;5134449;28;19920;-52
2023/06/28 07:49:32;;;;;;;7.47;3.10;;;16.50;99.90;;;;;;5116380;28;20044;-51
2023/06/28 07:51:59;;;;;;;8.55;3.03;;;16.50;99.90;;;;;;5134315;28;20051;-52
2023/06/28 07:54:25;;;;;;;5.93;2.67;;;16.50;99.90;;;;;;5134369;28;20086;-51
2023/06/28 07:56:51;;;;;;;6.57;2.55;;;16.40;99.90;;;;;;5134416;28;20101;-50
2023/06/28 07:59:19;;;;;;;6.18;2.40;;;16.40;99.90;;;;;;5134804;28;20051;-49
2023/06/28 08:01:46;;;;;;;6.85;3.08;;;16.50;99.90;;;;;;5134550;28;20086;-52
2023/06/28 08:04:11;;;;;;;6.85;2.75;;;16.50;99.90;;;;;;5116616;28;20047;-51
2023/06/28 08:06:37;;;;;;;7.13;2.80;;;16.50;99.90;;;;;;5134243;28;20175;-50
2023/06/28 08:09:03;;;;;;;6.13;2.85;;;16.50;99.90;;;;;;5134209;28;20047;-52
2023/06/28 08:11:28;;;;;;;6.80;3.08;;;16.50;99.90;;;;;;5134147;28;20043;-54
2023/06/28 08:13:54;;;;;;;10.57;3.00;;;16.60;99.90;;;;;;5116252;28;20047;-54
2023/06/28 08:16:20;;;;;;;6.68;2.75;;;16.60;99.90;;;;;;5116205;28;20301;-54
2023/06/28 08:18:46;;;;;;;7.07;2.90;;;16.60;99.90;;;;;;5134248;28;20043;-50
2023/06/28 08:21:14;;;;;;;7.18;3.17;;;16.60;99.90;;;;;;5134266;28;20057;-49
2023/06/28 08:23:39;;;;;;;9.50;3.33;;;16.60;99.90;;;;;;5134143;28;20047;-49
2023/06/28 08:26:05;;;;;;;5.97;2.90;;;16.60;99.90;;;;;;5133938;28;20104;-52
2023/06/28 08:28:31;;;;;;;6.10;2.80;;;16.60;99.90;;;;;;5115999;28;20046;-49
2023/06/28 08:30:57;;;;;;;7.40;2.95;;;16.70;99.90;;;;;;5134218;28;20054;-50
2023/06/28 08:33:24;;;;;;;6.03;2.75;;;16.70;99.90;;;;;;5134216;28;20043;-51
2023/06/28 08:35:50;;;;;;;8.23;3.42;;;16.80;99.90;;;;;;5134100;28;20047;-50
2023/06/28 08:38:16;;;;;;;5.57;2.60;;;16.80;99.90;;;;;;5133834;27;20035;-49
2023/06/28 08:40:42;;;;;;;7.20;2.67;;;16.80;99.90;;;;;;5118593;27;20065;-51
2023/06/28 08:43:12;;;;;;;7.30;2.47;;;16.80;99.90;;;;;;5137920;27;20476;-49
2023/06/28 08:45:38;;;;;;;6.35;2.80;;;16.80;99.90;;;;;;5119761;27;20122;-52
2023/06/28 08:48:04;;;;;;;8.02;2.95;;;16.90;99.90;;;;;;5137633;27;20483;-50
2023/06/28 08:50:31;;;;;;;5.40;2.45;;;16.90;99.90;;;;;;5137793;27;20403;-49
2023/06/28 08:52:59;;;;;;;7.65;2.72;;;16.90;99.90;;;;;;5137714;27;20056;-53
2023/06/28 08:55:25;;;;;;;5.53;2.83;;;16.90;99.90;;;;;;5138157;27;20188;-48
2023/06/28 08:57:52;;;;;;;6.63;2.63;;;16.90;99.90;;;;;;5137434;27;20039;-50
2023/06/28 09:00:18;;;;;;;6.65;3.00;;;17.00;99.90;;;;;;5137541;27;20047;-49
2023/06/28 09:02:44;;;;;;;7.60;2.75;;;17.00;99.90;;;;;;5137466;27;20043;-50
2023/06/28 09:05:11;;;;;;;7.25;2.83;;;17.00;99.90;;;;;;5137375;27;20499;-48
2023/06/28 09:07:39;;;;;;;5.40;2.40;;;17.00;99.90;;;;;;5119208;27;20539;-49
2023/06/28 09:10:07;;;;;;;7.57;2.60;;;17.00;99.90;;;;;;5137384;27;20043;-48
2023/06/28 09:12:33;;;;;;;7.28;3.10;;;17.00;99.90;;;;;;5137400;27;20047;-51
2023/06/28 09:14:59;;;;;;;5.80;2.33;;;17.00;99.90;;;;;;5118950;27;20051;-49
2023/06/28 09:17:25;;;;;;;6.57;2.45;;;17.00;99.90;;;;;;5137245;27;20039;-49
2023/06/28 09:19:51;;;;;;;5.25;2.63;;;16.90;99.90;;;;;;5137179;27;20043;-49
2023/06/28 09:22:17;;;;;;;5.57;2.38;;;17.00;99.90;;;;;;5118870;27;20090;-49
2023/06/28 09:24:48;;;;;;;7.78;3.13;;;17.00;99.90;;;;;;5137180;27;20047;-49
2023/06/28 09:27:15;;;;;;;7.57;3.03;;;17.00;99.90;;;;;;5137076;27;20540;-48
2023/06/28 09:29:40;;;;;;;7.53;3.03;;;17.00;99.90;;;;;;5136903;27;20126;-48
2023/06/28 09:32:07;;;;;;;7.43;3.58;;;17.10;99.90;;;;;;5118530;27;20130;-49
2023/06/28 09:34:35;;;;;;;10.90;2.97;;;17.10;99.90;;;;;;5136882;27;20047;-49
2023/06/28 09:37:00;;;;;;;7.65;3.17;;;17.10;99.90;;;;;;5136785;27;20116;-48
2023/06/28 09:39:26;;;;;;;6.82;3.72;;;17.10;99.90;;;;;;5136577;27;20488;-48
2023/06/28 09:41:53;;;;;;;6.95;2.83;;;17.10;99.90;;;;;;5136740;27;20039;-50
2023/06/28 09:44:29;;;;;;;6.63;3.28;;;17.10;99.90;;;;;;5136583;27;20039;-48
2023/06/28 09:47:02;;;;;;;7.43;2.97;;;17.00;99.90;;;;;;5136410;27;20043;-48
2023/06/28 09:49:28;;;;;;;7.60;3.00;;;17.00;99.90;;;;;;5136442;27;20503;-48
2023/06/28 09:52:14;;;;;;;10.00;4.57;;;17.10;99.90;;;;;;5136429;27;20047;-49
2023/06/28 09:54:44;;;;;;;8.63;3.85;;;17.10;99.90;;;;;;5136134;27;20441;-49
2023/06/28 09:57:11;;;;;;;8.30;4.10;;;17.10;99.90;;;;;;5136548;27;20123;-50
2023/06/28 09:59:39;;;;;;;9.43;4.10;;;17.10;99.90;;;;;;5136245;27;20603;-49
2023/06/28 10:02:08;;;;;;;11.18;4.07;;;17.10;99.90;;;;;;5136322;27;20130;-50
2023/06/28 10:04:36;;;;;;;8.57;4.25;;;17.10;99.90;;;;;;5136435;27;20130;-49
2023/06/28 10:07:03;;;;;;;8.95;4.47;;;17.10;99.90;;;;;;5136231;27;20043;-49
2023/06/28 10:09:40;;;;;;;9.45;4.82;;;17.10;99.90;;;;;;5136214;27;20046;-50
2023/06/28 10:12:15;;;;;;;8.70;4.60;;;17.10;99.90;;;;;;5136134;27;20042;-49
2023/06/28 10:14:48;;;;;;;9.70;4.35;;;17.10;99.90;;;;;;5136159;27;20047;-49
2023/06/28 10:17:16;;;;;;;8.10;4.18;;;17.10;99.90;;;;;;5136473;27;20046;-50
2023/06/28 10:19:42;;;;;;;10.93;4.75;;;17.10;99.90;;;;;;5136311;27;20053;-51
2023/06/28 10:22:09;;;;;;;9.20;4.68;;;17.10;99.90;;;;;;5136067;27;20043;-51
2023/06/28 10:24:36;;;;;;;9.15;4.50;;;17.10;99.90;;;;;;5135963;27;20046;-51
2023/06/28 10:27:04;;;;;;;8.50;4.32;;;17.10;99.90;;;;;;5135652;27;20411;-53
2023/06/28 10:29:30;;;;;;;10.18;5.10;;;17.20;99.90;;;;;;5135856;27;20054;-54
2023/06/28 10:31:56;;;;;;;11.15;5.10;;;17.20;99.90;;;;;;5136147;27;20071;-53
2023/06/28 10:34:22;;;;;;;10.02;4.20;;;17.10;99.90;;;;;;5135901;27;20096;-53
2023/06/28 10:36:48;;;;;;;8.20;4.63;;;17.20;99.90;;;;;;5135558;27;20050;-54
2023/06/28 10:39:16;;;;;;;9.57;4.68;;;17.20;99.90;;;;;;5117199;27;20047;-53
2023/06/28 10:41:42;;;;;;;8.77;4.93;;;17.20;99.90;;;;;;5135325;27;20111;-54
2023/06/28 10:44:08;;;;;;;11.85;5.40;;;17.20;99.90;;;;;;5135361;27;20623;-53
2023/06/28 10:46:34;;;;;;;9.35;4.95;;;17.20;99.90;;;;;;5135551;27;20130;-53
2023/06/28 10:49:00;;;;;;;8.90;4.75;;;17.20;99.90;;;;;;5135166;27;20090;-54
2023/06/28 10:51:33;;;;;;;11.77;5.38;;;17.20;99.90;;;;;;5135365;27;20043;-53
2023/06/28 10:54:13;;;;;;;11.73;5.75;;;17.20;99.90;;;;;;5100046;27;20385;-54
2023/06/28 10:56:48;;;;;;;10.93;5.30;;;17.20;99.90;;;;;;5135232;27;20035;-53
2023/06/28 10:59:14;;;;;;;9.48;4.78;;;17.20;99.90;;;;;;5117157;27;20062;-52
2023/06/28 11:01:49;;;;;;;10.27;5.35;;;17.20;99.90;;;;;;5116721;27;20055;-53
2023/06/28 11:04:25;;;;;;;11.18;5.55;;;17.20;99.90;;;;;;5134976;27;20054;-55
2023/06/28 11:07:16;;;;;;;12.75;5.78;;;17.20;99.90;;;;;;5135313;27;20043;-52
2023/06/28 11:10:16;;;;;;;10.73;5.05;;;17.20;99.90;;;;;;5135169;27;20047;-54
2023/06/28 11:12:46;;;;;;;9.82;5.63;;;17.10;99.90;;;;;;5135049;27;20126;-54
2023/06/28 11:15:13;;;;;;;9.02;5.18;;;17.10;99.90;;;;;;5135479;27;20122;-54
2023/06/28 11:17:39;;;;;;;11.85;5.68;;;17.10;99.90;;;;;;5134836;27;20089;-55
2023/06/28 11:20:06;;;;;;;8.88;4.68;;;17.10;99.90;;;;;;5134893;27;20502;-55
2023/06/28 11:22:52;;;;;;;8.98;4.80;;;17.10;99.90;;;;;;5134900;27;20069;-55
2023/06/28 11:25:21;;;;;;;9.43;5.15;;;17.10;99.90;;;;;;5134590;27;20047;-56
2023/06/28 11:27:47;;;;;;;10.93;5.20;;;17.10;99.90;;;;;;5134838;27;20039;-55
2023/06/28 11:30:14;;;;;;;10.20;5.00;;;17.10;99.90;;;;;;5116558;27;20046;-52
2023/06/28 11:32:40;;;;;;;14.73;6.22;;;17.10;99.90;;;;;;5134649;27;20119;-55
2023/06/28 11:35:06;;;;;;;9.45;5.28;;;17.10;99.90;;;;;;5134713;27;20476;-53
2023/06/28 11:37:32;;;;;;;12.23;5.43;;;17.10;99.90;;;;;;5134678;27;20042;-54
2023/06/28 11:40:02;;;;;;;9.98;5.20;;;17.10;99.90;;;;;;5134483;27;20129;-54
2023/06/28 11:42:28;;;;;;;11.32;5.60;;;17.10;99.90;;;;;;5134761;27;20491;-55
2023/06/28 11:44:54;;;;;;;8.93;5.10;;;17.10;99.90;;;;;;5134627;28;20076;-54
2023/06/28 11:47:22;;;;;;;11.95;6.35;;;17.10;99.90;;;;;;5134243;28;20051;-55
2023/06/28 11:49:48;;;;;;;10.93;6.32;;;17.10;99.90;;;;;;5134613;28;20048;-55
2023/06/28 11:52:18;;;;;;;11.07;5.70;;;17.20;99.90;;;;;;5116295;28;20059;-56
2023/06/28 11:54:44;;;;;;;12.02;6.30;;;17.20;99.90;;;;;;5135142;28;20039;-55
2023/06/28 11:57:10;;;;;;;10.60;5.57;;;17.10;99.90;;;;;;5134452;28;20395;-54
2023/06/28 11:59:37;;;;;;;10.80;6.32;;;17.20;99.90;;;;;;5116130;28;20402;-55
2023/06/28 12:02:05;;;;;;;9.35;5.72;;;17.10;99.90;;;;;;5116060;28;20517;-55
2023/06/28 12:04:31;;;;;;;9.52;5.20;;;17.20;99.90;;;;;;5116083;28;20483;-55
2023/06/28 12:06:59;;;;;;;10.10;5.80;;;17.20;99.90;;;;;;5134158;28;20039;-56
2023/06/28 12:09:27;;;;;;;13.27;6.45;;;17.20;99.90;;;;;;5134574;28;20061;-55
2023/06/28 12:11:57;;;;;;;10.75;6.00;;;17.20;99.90;;;;;;5134351;28;20100;-54
2023/06/28 12:14:24;;;;;;;11.90;6.47;;;17.20;99.90;;;;;;5136816;27;20095;-55
2023/06/28 12:16:50;;;;;;;13.98;7.22;;;17.20;99.90;;;;;;5138361;27;20047;-55
2023/06/28 12:19:16;;;;;;;;;;;17.20;99.90;;;;;;5138723;27;20051;-55
2023/06/28 12:21:42;;;;;;;10.45;6.03;;;17.20;99.90;;;;;;5138147;27;19919;-56
2023/06/28 12:24:14;;;;;;;11.95;6.18;;;17.20;99.90;;;;;;5138697;27;20050;-55
2023/06/28 12:26:47;;;;;;;11.68;6.72;;;17.20;99.90;;;;;;5138195;27;20043;-55
2023/06/28 12:29:13;;;;;;;13.00;6.43;;;17.20;99.90;;;;;;5138158;27;20054;-56
2023/06/28 12:31:47;;;;;;;13.73;6.82;;;17.20;99.90;;;;;;5138088;27;20035;-56
2023/06/28 12:34:26;;;;;;;11.23;6.93;;;17.30;99.90;;;;;;5137987;27;20047;-56
2023/06/28 12:36:56;;;;;;;11.63;7.00;;;17.30;99.90;;;;;;5137851;27;20487;-56
2023/06/28 12:39:26;;;;;;;12.30;7.05;;;17.30;99.90;;;;;;5138037;27;20063;-56
2023/06/28 12:42:17;;;;;;;13.43;6.93;;;17.40;99.90;;;;;;5119628;27;20043;-56
2023/06/28 12:44:51;;;;;;;12.45;7.28;;;17.40;99.90;;;;;;5137689;27;20135;-55
2023/06/28 12:47:18;;;;;;;15.15;7.20;;;17.40;99.90;;;;;;5137842;27;20055;-56